Millbury, Massachusetts
Current Conditions -  °F | °C
As of 10:54 PM on Thursday 18 Dec 2014 (Local Time) from KORH Reporting Station
Overcast Overcast  
Wind Chill: 25°   Ceiling: 2000
Heat Index: 32°   Visibility: 10mi
Dew Point: 26°   Wind: 8mph
Humidity: 79%   Direction: 270°W
Pressure: 29.84"   Gusts: NA
Location:  42.19°N, 71.76°W
Report Text: KORH 190354Z AUTO 27007KT 10SM OVC020 00/M03 A2984 RMK AO2 SLP116 T00001033
Loading
Personal Weather Stations






























Interactive Weather Map New forecast layout! Learn more

10-Day Weather Forecast

Advertisements
Track Severe Weather on mobile